Main page
METAR-TAF:

METAR-TAF

Airports :

Wellington, New Zealand

Wellington International Airport

latitude: 41-20S, longitude: 174-48E, elevation: 12 m

Current weather observation

The report was made 44 minutes ago, at 02:00 UTC
Wind 16 kt from the North
Temperature 18°C
Humidity 83%
Pressure 1016 hPa
Visibility 10 km or more

METAR: NZWN 300200Z AUTO 36016KT 9999 OVC014/// 18/15 Q1016 BECMG BKN016

Time: 15:44 (02:44 UTC)

Forecast

The report was made 23 minutes ago, at 02:21 UTC
Forecast valid from 30 at 02 UTC to 31 at 00 UTC
Wind 15 kt from the North
Visibility 10 km or more
Broken clouds at a height of 1400 ft
Becoming
from 30 at 02 UTC to 30 at 04 UTC
Broken clouds at a height of 1600 ft
Becoming
from 30 at 04 UTC to 30 at 06 UTC
Wind 15 kt from the North with gusts up to 25 kt

TAF: NZWN 300221Z 3002/3100 36015KT 9999 BKN014 BECMG 3002/3004 BKN016 BECMG 3004/3006 36015G25KT

Weather observations and forecasts of more than 4000 airports (METAR and TAF reports).

The available stations are represented by yellow and red dots on the map.

Hover mouse over dot to see the name of the station.

Then click to see weather observations and forecasts.

To change the map : click on the green buttons with a black cross to zoom in, on the green button with a dash to zoom out, or on the green arrows for adjacent maps.


METAR-TAF: